Time;durP1;ratioP1;P1;durP2;ratioP2;P2;SDS_P1;SDS_P2;PMS_P1;PMS_P2;Temp;Humidity;BMP_temperature;BMP_pressure;BME280_temperature;BME280_humidity;BME280_pressure;Samples;Min_cycle;Max_cycle;Signal;HPM_P1;HPM_P2
2022/09/23 00:00:33;;;;;;;14.85;12.68;;;12.40;99.90;;;;;;5017946;28;20133;-64
2022/09/23 00:02:59;;;;;;;18.02;12.73;;;12.40;99.90;;;;;;5017929;28;20088;-63
2022/09/23 00:05:28;;;;;;;14.13;12.63;;;12.40;99.90;;;;;;5017859;28;20422;-64
2022/09/23 00:07:55;;;;;;;13.27;11.85;;;12.40;99.90;;;;;;4988390;28;20065;-64
2022/09/23 00:10:23;;;;;;;15.80;12.05;;;12.40;99.90;;;;;;5013671;28;20120;-64
2022/09/23 00:12:48;;;;;;;16.83;13.73;;;12.40;99.90;;;;;;5017773;28;20476;-64
2022/09/23 00:15:14;;;;;;;16.88;13.30;;;12.40;99.90;;;;;;5000583;28;20056;-63
2022/09/23 00:17:40;;;;;;;16.58;12.90;;;12.40;99.90;;;;;;5000329;28;20050;-64
2022/09/23 00:20:08;;;;;;;16.92;13.82;;;12.40;99.90;;;;;;5017611;28;20356;-64
2022/09/23 00:22:36;;;;;;;17.52;13.55;;;12.40;99.90;;;;;;4989206;28;20177;-64
2022/09/23 00:25:07;;;;;;;15.13;12.93;;;12.40;99.90;;;;;;4997790;28;20153;-65
2022/09/23 00:27:32;;;;;;;16.95;13.23;;;12.40;99.90;;;;;;4997525;28;20070;-64
2022/09/23 00:29:59;;;;;;;16.50;13.20;;;12.30;99.90;;;;;;4997930;28;20057;-64
2022/09/23 00:32:25;;;;;;;15.35;12.95;;;12.30;99.90;;;;;;4997772;28;20093;-63
2022/09/23 00:34:51;;;;;;;15.57;13.25;;;12.40;99.90;;;;;;4997734;28;20184;-63
2022/09/23 00:37:18;;;;;;;19.25;13.13;;;12.30;99.90;;;;;;5008018;28;20525;-65
2022/09/23 00:39:44;;;;;;;14.00;12.45;;;12.30;99.90;;;;;;5017003;28;20384;-63
2022/09/23 00:42:16;;;;;;;15.77;12.50;;;12.30;99.90;;;;;;5000082;28;20085;-63
2022/09/23 00:44:56;;;;;;;15.45;12.55;;;12.30;99.90;;;;;;5017318;28;20052;-63
2022/09/23 00:47:36;;;;;;;16.13;13.85;;;12.30;99.90;;;;;;5017063;28;20124;-63
2022/09/23 00:50:08;;;;;;;17.25;13.23;;;12.30;99.90;;;;;;5017151;28;20060;-65
2022/09/23 00:52:35;;;;;;;21.08;13.77;;;12.30;99.90;;;;;;5001445;28;20042;-64
2022/09/23 00:55:07;;;;;;;15.10;13.50;;;12.30;99.90;;;;;;4997384;28;20042;-64
2022/09/23 00:57:35;;;;;;;17.65;13.57;;;12.30;99.90;;;;;;5014007;28;20395;-65
2022/09/23 01:00:03;;;;;;;17.27;13.60;;;12.30;99.90;;;;;;4999778;28;20050;-63
2022/09/23 01:02:30;;;;;;;16.20;14.07;;;12.30;99.90;;;;;;5016861;28;20072;-64
2022/09/23 01:04:56;;;;;;;17.27;14.90;;;12.30;99.90;;;;;;5015275;28;20060;-64
2022/09/23 01:07:22;;;;;;;15.48;13.82;;;12.30;99.90;;;;;;5016860;28;20415;-63
2022/09/23 01:09:48;;;;;;;18.95;14.52;;;12.30;99.90;;;;;;5016357;28;20050;-65
2022/09/23 01:12:29;;;;;;;16.42;13.60;;;12.30;99.90;;;;;;5016758;28;20042;-64
2022/09/23 01:15:10;;;;;;;15.48;13.23;;;12.30;99.90;;;;;;5016643;28;20352;-64
2022/09/23 01:17:49;;;;;;;16.25;13.90;;;12.30;99.90;;;;;;5016362;28;20123;-63
2022/09/23 01:20:44;;;;;;;19.10;14.45;;;12.30;99.90;;;;;;5001651;28;20101;-64
2022/09/23 01:23:09;;;;;;;16.85;14.50;;;12.30;99.90;;;;;;4997122;28;20353;-64
2022/09/23 01:25:53;;;;;;;19.45;13.93;;;12.30;99.90;;;;;;4996530;28;20061;-64
2022/09/23 01:28:40;;;;;;;20.38;16.13;;;12.20;99.90;;;;;;4996795;28;20140;-63
2022/09/23 01:31:23;;;;;;;19.83;15.52;;;12.20;99.90;;;;;;4996700;28;20437;-64
2022/09/23 01:34:02;;;;;;;20.33;15.73;;;12.20;99.90;;;;;;5001118;28;20131;-65
2022/09/23 01:36:50;;;;;;;17.88;14.45;;;12.20;99.90;;;;;;5015955;28;20034;-64
2022/09/23 01:39:23;;;;;;;22.00;14.98;;;12.10;99.90;;;;;;5016294;28;20099;-64
2022/09/23 01:41:54;;;;;;;19.15;14.88;;;12.10;99.90;;;;;;5016219;28;20065;-64
2022/09/23 01:44:43;;;;;;;20.75;15.45;;;12.10;99.90;;;;;;5015806;28;20380;-63
2022/09/23 01:47:20;;;;;;;21.95;15.77;;;12.10;99.90;;;;;;5016019;28;20042;-64
2022/09/23 01:50:02;;;;;;;21.95;16.83;;;12.00;99.90;;;;;;5000829;28;20121;-65
2022/09/23 01:52:37;;;;;;;20.33;15.18;;;12.00;99.90;;;;;;4979337;28;20058;-65
2022/09/23 01:55:07;;;;;;;18.00;14.63;;;12.00;99.90;;;;;;4978950;28;20061;-63
2022/09/23 01:58:02;;;;;;;19.08;15.68;;;11.90;99.90;;;;;;4995963;28;20069;-65
2022/09/23 02:00:33;;;;;;;22.33;16.73;;;11.90;99.90;;;;;;4978935;28;20532;-64
2022/09/23 02:03:19;;;;;;;21.48;15.93;;;11.90;99.90;;;;;;4998046;28;20058;-62
2022/09/23 02:06:11;;;;;;;21.05;16.33;;;11.90;99.90;;;;;;4998534;28;20116;-64
2022/09/23 02:08:42;;;;;;;20.10;15.98;;;11.90;99.90;;;;;;4995462;28;20054;-63
2022/09/23 02:11:10;;;;;;;21.52;17.70;;;11.90;99.90;;;;;;4995628;28;20380;-63
2022/09/23 02:13:39;;;;;;;22.30;17.02;;;11.80;99.90;;;;;;4995907;28;20061;-64
2022/09/23 02:16:17;;;;;;;24.20;18.13;;;11.90;99.90;;;;;;4999364;28;20042;-64
2022/09/23 02:18:52;;;;;;;23.70;18.48;;;11.80;99.90;;;;;;5015300;28;20057;-63
2022/09/23 02:21:20;;;;;;;22.73;18.60;;;11.80;99.90;;;;;;5015508;28;20092;-62
2022/09/23 02:23:51;;;;;;;22.48;18.40;;;11.80;99.90;;;;;;5015323;28;20045;-63
2022/09/23 02:26:21;;;;;;;23.33;18.50;;;11.80;99.90;;;;;;5015176;28;20456;-62
2022/09/23 02:28:52;;;;;;;23.02;18.35;;;11.70;99.90;;;;;;5015491;28;20349;-63
2022/09/23 02:31:28;;;;;;;22.05;19.25;;;11.70;99.90;;;;;;5007941;28;20060;-62
2022/09/23 02:34:01;;;;;;;25.90;19.45;;;11.70;99.90;;;;;;4989546;28;20049;-65
2022/09/23 02:36:36;;;;;;;24.85;19.58;;;11.70;99.90;;;;;;5015076;28;20116;-62
2022/09/23 02:39:07;;;;;;;26.15;19.08;;;11.70;99.90;;;;;;4998109;28;20064;-63
2022/09/23 02:41:53;;;;;;;24.10;19.08;;;11.60;99.90;;;;;;5015032;28;20054;-63
2022/09/23 02:44:21;;;;;;;26.50;20.70;;;11.60;99.90;;;;;;5015379;28;20060;-64
2022/09/23 02:46:49;;;;;;;24.63;19.55;;;11.60;99.90;;;;;;5001830;28;20062;-63
2022/09/23 02:49:27;;;;;;;23.20;19.02;;;11.60;99.90;;;;;;4995391;28;20057;-64
2022/09/23 02:51:53;;;;;;;25.10;20.52;;;11.60;99.90;;;;;;4978646;28;20050;-64
2022/09/23 02:54:24;;;;;;;24.77;20.08;;;11.60;99.90;;;;;;4977944;28;20147;-64
2022/09/23 02:56:52;;;;;;;27.70;20.02;;;11.60;99.90;;;;;;4995439;28;20043;-63
2022/09/23 02:59:22;;;;;;;25.90;19.63;;;11.60;99.90;;;;;;4978567;28;20054;-62
2022/09/23 03:02:13;;;;;;;25.83;19.90;;;11.60;99.90;;;;;;4996316;28;20125;-63
2022/09/23 03:05:02;;;;;;;27.25;20.98;;;11.60;99.90;;;;;;4978157;28;20361;-63
2022/09/23 03:07:49;;;;;;;26.30;21.02;;;11.50;99.90;;;;;;4995332;28;20039;-64
2022/09/23 03:10:47;;;;;;;25.67;21.13;;;11.50;99.90;;;;;;4978304;28;20465;-64
2022/09/23 03:13:27;;;;;;;29.05;21.20;;;11.60;99.90;;;;;;4995134;28;20050;-64
2022/09/23 03:16:11;;;;;;;23.33;19.55;;;11.50;99.90;;;;;;5004488;28;20052;-63
2022/09/23 03:18:42;;;;;;;27.25;20.25;;;11.50;99.90;;;;;;5015017;28;20057;-64
2022/09/23 03:21:16;;;;;;;26.55;19.90;;;11.50;99.90;;;;;;5016464;28;20108;-64
2022/09/23 03:23:43;;;;;;;26.70;20.92;;;11.50;99.90;;;;;;5001068;28;20064;-62
2022/09/23 03:26:20;;;;;;;24.17;19.55;;;11.50;99.90;;;;;;5018083;28;20058;-63
2022/09/23 03:28:46;;;;;;;28.77;21.50;;;11.50;99.90;;;;;;5001542;28;20058;-63
2022/09/23 03:31:14;;;;;;;25.10;20.85;;;11.50;99.90;;;;;;5003781;28;20038;-63
2022/09/23 03:34:01;;;;;;;24.45;21.80;;;11.40;99.90;;;;;;4998867;28;20100;-64
2022/09/23 03:36:51;;;;;;;31.63;22.50;;;11.50;99.90;;;;;;4998788;28;20066;-62
2022/09/23 03:39:27;;;;;;;28.80;21.70;;;11.40;99.90;;;;;;4998658;28;20109;-62
2022/09/23 03:41:57;;;;;;;25.35;20.75;;;11.40;99.90;;;;;;4998889;28;20372;-63
2022/09/23 03:44:23;;;;;;;25.10;22.08;;;11.40;99.90;;;;;;5000035;28;20528;-63
2022/09/23 03:46:50;;;;;;;27.88;22.40;;;11.30;99.90;;;;;;5017611;28;20050;-64
2022/09/23 03:49:23;;;;;;;27.08;21.80;;;11.30;99.90;;;;;;5018028;28;20050;-64
2022/09/23 03:51:48;;;;;;;28.95;22.17;;;11.30;99.90;;;;;;5018187;28;20053;-63
2022/09/23 03:54:14;;;;;;;29.27;23.15;;;11.30;99.90;;;;;;5000990;28;20054;-64
2022/09/23 03:56:40;;;;;;;30.17;22.98;;;11.30;99.90;;;;;;5018185;28;20038;-63
2022/09/23 03:59:05;;;;;;;26.10;21.98;;;11.30;99.90;;;;;;5016238;28;20428;-65
2022/09/23 04:01:31;;;;;;;30.05;23.63;;;11.20;99.90;;;;;;5002470;28;20104;-64
2022/09/23 04:03:57;;;;;;;28.73;23.08;;;11.30;99.90;;;;;;5017844;28;20080;-64
2022/09/23 04:06:22;;;;;;;28.83;22.73;;;11.20;99.90;;;;;;5000103;28;20050;-63
2022/09/23 04:08:48;;;;;;;27.48;23.73;;;11.30;99.90;;;;;;5017686;28;20037;-62
2022/09/23 04:11:13;;;;;;;26.15;21.08;;;11.20;99.90;;;;;;5017940;28;20081;-64
2022/09/23 04:13:39;;;;;;;28.40;22.85;;;11.30;99.90;;;;;;5011217;28;20084;-63
2022/09/23 04:16:05;;;;;;;27.40;23.23;;;11.20;99.90;;;;;;5015721;28;20049;-64
2022/09/23 04:18:31;;;;;;;30.73;23.48;;;11.20;99.90;;;;;;4980506;28;20046;-63
2022/09/23 04:20:58;;;;;;;29.80;22.55;;;11.20;99.90;;;;;;4998058;28;20042;-63
2022/09/23 04:23:25;;;;;;;29.08;23.02;;;11.20;99.90;;;;;;4997965;28;20069;-64
2022/09/23 04:25:52;;;;;;;28.50;22.92;;;11.20;99.90;;;;;;4997943;28;20050;-63
2022/09/23 04:28:18;;;;;;;26.15;22.15;;;11.20;99.90;;;;;;4999461;28;20034;-64
2022/09/23 04:30:45;;;;;;;27.98;23.33;;;11.20;99.90;;;;;;4993611;28;20057;-64
2022/09/23 04:33:12;;;;;;;26.33;21.92;;;11.20;99.90;;;;;;4999857;28;20053;-64
2022/09/23 04:35:39;;;;;;;26.38;20.80;;;11.30;99.90;;;;;;5017267;28;20137;-64
2022/09/23 04:38:05;;;;;;;30.27;23.40;;;11.20;99.90;;;;;;5017165;28;20361;-64
2022/09/23 04:40:31;;;;;;;26.80;21.95;;;11.20;99.90;;;;;;4999956;28;20060;-64
2022/09/23 04:42:57;;;;;;;25.52;22.75;;;11.20;99.90;;;;;;5010396;28;20377;-65
2022/09/23 04:45:23;;;;;;;25.63;22.42;;;11.20;99.90;;;;;;5007112;28;20053;-64
2022/09/23 04:47:48;;;;;;;29.17;23.35;;;11.20;99.90;;;;;;5000026;28;20046;-64
2022/09/23 04:50:14;;;;;;;27.73;22.90;;;11.20;99.90;;;;;;4999611;28;20428;-62
2022/09/23 04:52:40;;;;;;;29.65;22.08;;;11.20;99.90;;;;;;5016971;28;20077;-64
2022/09/23 04:55:06;;;;;;;25.55;22.85;;;11.20;99.90;;;;;;5016916;28;20076;-64
2022/09/23 04:57:33;;;;;;;29.50;23.40;;;11.20;99.90;;;;;;5011268;28;20042;-65
2022/09/23 04:59:59;;;;;;;27.60;22.83;;;11.20;99.90;;;;;;4997128;28;20054;-64
2022/09/23 05:02:25;;;;;;;26.85;22.58;;;11.20;99.90;;;;;;5015643;28;20442;-63
2022/09/23 05:04:50;;;;;;;28.05;22.98;;;11.20;99.90;;;;;;5016781;28;20057;-64
2022/09/23 05:07:17;;;;;;;30.05;22.75;;;11.20;99.90;;;;;;5016712;28;20060;-64
2022/09/23 05:09:42;;;;;;;30.30;24.20;;;11.20;99.90;;;;;;5016669;28;20095;-64
2022/09/23 05:12:08;;;;;;;28.00;23.38;;;11.20;99.90;;;;;;5016760;28;20049;-64
2022/09/23 05:14:34;;;;;;;29.17;22.60;;;11.20;99.90;;;;;;4996824;28;20112;-63
2022/09/23 05:16:59;;;;;;;28.40;23.58;;;11.20;99.90;;;;;;4992010;28;20045;-63
2022/09/23 05:19:25;;;;;;;29.90;23.30;;;11.20;99.90;;;;;;5016349;28;20049;-64
2022/09/23 05:21:50;;;;;;;28.35;22.50;;;11.20;99.90;;;;;;5016497;28;20034;-64
2022/09/23 05:24:16;;;;;;;26.75;21.25;;;11.20;99.90;;;;;;5016498;28;20417;-63
2022/09/23 05:26:42;;;;;;;25.35;22.45;;;11.10;99.90;;;;;;4998526;28;20058;-62
2022/09/23 05:29:07;;;;;;;26.17;22.75;;;11.20;99.90;;;;;;4998470;28;20057;-64
2022/09/23 05:31:34;;;;;;;26.48;23.02;;;11.20;99.90;;;;;;4996639;28;20133;-63
2022/09/23 05:34:01;;;;;;;29.67;23.90;;;11.20;99.90;;;;;;4979311;28;20061;-64
2022/09/23 05:36:29;;;;;;;27.33;22.88;;;11.20;99.90;;;;;;4979174;28;20050;-63
2022/09/23 05:38:57;;;;;;;25.48;22.20;;;11.10;99.90;;;;;;4979451;28;20050;-64
2022/09/23 05:41:25;;;;;;;30.15;23.83;;;11.20;99.90;;;;;;4996366;28;20181;-64
2022/09/23 05:43:52;;;;;;;30.45;22.42;;;11.20;99.90;;;;;;5012338;28;20421;-64
2022/09/23 05:46:28;;;;;;;28.70;23.00;;;11.10;99.90;;;;;;5015849;28;20129;-64
2022/09/23 05:48:55;;;;;;;26.95;22.42;;;11.20;99.90;;;;;;4998831;28;20061;-63
2022/09/23 05:51:23;;;;;;;31.80;22.67;;;11.20;99.90;;;;;;5015974;28;20076;-64
2022/09/23 05:53:51;;;;;;;27.23;21.20;;;11.20;99.90;;;;;;4998424;28;20072;-64
2022/09/23 05:56:22;;;;;;;26.77;22.27;;;11.20;99.90;;;;;;5015654;28;20045;-64
2022/09/23 05:58:49;;;;;;;26.30;22.13;;;11.30;99.90;;;;;;4996518;28;20037;-63
2022/09/23 06:01:16;;;;;;;28.95;20.88;;;11.30;99.90;;;;;;4996153;28;20496;-62
2022/09/23 06:03:46;;;;;;;32.58;22.08;;;11.30;99.90;;;;;;4996080;28;20061;-64
2022/09/23 06:06:13;;;;;;;27.73;21.25;;;11.30;99.90;;;;;;4978645;28;20061;-63
2022/09/23 06:08:39;;;;;;;27.90;21.27;;;11.40;99.90;;;;;;4995306;28;20078;-63
2022/09/23 06:11:07;;;;;;;29.42;19.70;;;11.40;99.90;;;;;;4990510;28;20050;-63
2022/09/23 06:13:34;;;;;;;26.02;20.50;;;11.40;99.90;;;;;;4998308;28;20057;-64
2022/09/23 06:16:00;;;;;;;29.20;20.40;;;11.50;99.90;;;;;;4998051;28;20115;-65
2022/09/23 06:18:26;;;;;;;23.05;19.95;;;11.50;99.90;;;;;;4998059;28;20046;-63
2022/09/23 06:20:51;;;;;;;25.50;19.65;;;11.50;99.90;;;;;;4998385;28;20363;-64
2022/09/23 06:23:17;;;;;;;31.92;20.35;;;11.60;99.90;;;;;;5014790;28;20045;-64
2022/09/23 06:25:43;;;;;;;22.17;19.73;;;11.60;99.90;;;;;;5003918;28;20053;-63
2022/09/23 06:28:11;;;;;;;24.83;19.70;;;11.60;99.90;;;;;;4995608;28;20042;-64
2022/09/23 06:30:38;;;;;;;26.23;20.50;;;11.70;99.90;;;;;;4995454;28;20479;-63
2022/09/23 06:33:03;;;;;;;27.48;21.77;;;11.70;99.90;;;;;;4978929;28;20058;-63
2022/09/23 06:35:32;;;;;;;25.08;20.40;;;11.70;99.90;;;;;;4996089;28;20455;-64
2022/09/23 06:37:57;;;;;;;26.52;20.27;;;11.70;99.90;;;;;;4995339;28;20108;-63
2022/09/23 06:40:23;;;;;;;27.20;20.02;;;11.80;99.90;;;;;;5005236;28;20046;-64
2022/09/23 06:42:59;;;;;;;25.60;19.90;;;11.80;99.90;;;;;;5015301;28;20053;-64
2022/09/23 06:45:26;;;;;;;24.88;18.65;;;11.90;99.90;;;;;;5015385;28;20053;-64
2022/09/23 06:47:56;;;;;;;22.70;18.23;;;12.00;99.90;;;;;;4997791;28;20052;-64
2022/09/23 06:50:24;;;;;;;22.67;17.73;;;12.00;99.90;;;;;;5014928;28;20042;-64
2022/09/23 06:52:54;;;;;;;23.42;18.52;;;12.10;99.90;;;;;;5014915;28;20042;-63
2022/09/23 06:55:22;;;;;;;23.95;18.58;;;12.10;99.90;;;;;;5004842;28;20050;-63
2022/09/23 06:57:48;;;;;;;21.60;17.65;;;12.20;99.90;;;;;;4982195;28;20081;-63
2022/09/23 07:00:14;;;;;;;24.52;18.40;;;12.20;99.90;;;;;;4999492;28;20461;-64
2022/09/23 07:02:43;;;;;;;22.15;18.25;;;12.20;99.90;;;;;;5001105;28;20088;-64
2022/09/23 07:05:09;;;;;;;23.48;18.52;;;12.30;99.90;;;;;;5004361;28;20034;-63
2022/09/23 07:07:36;;;;;;;21.70;17.48;;;12.30;99.90;;;;;;5018827;28;20096;-62
2022/09/23 07:10:05;;;;;;;22.83;18.08;;;12.40;99.90;;;;;;5016972;28;20433;-65
2022/09/23 07:12:32;;;;;;;21.10;18.27;;;12.40;99.90;;;;;;5018786;28;20425;-63
2022/09/23 07:14:57;;;;;;;26.50;18.67;;;12.40;99.90;;;;;;5018806;28;20041;-64
2022/09/23 07:17:24;;;;;;;21.17;17.65;;;12.40;99.90;;;;;;5000707;28;20085;-63
2022/09/23 07:19:53;;;;;;;21.88;17.90;;;12.50;99.90;;;;;;5018583;28;20053;-62
2022/09/23 07:22:23;;;;;;;19.92;17.20;;;12.50;99.90;;;;;;5018671;28;20037;-63
2022/09/23 07:24:50;;;;;;;20.52;17.95;;;12.50;99.90;;;;;;5018735;28;20049;-63
2022/09/23 07:27:18;;;;;;;22.30;19.08;;;12.50;99.90;;;;;;5018668;28;20049;-64
2022/09/23 07:29:48;;;;;;;22.48;18.52;;;12.50;99.90;;;;;;5018528;28;20461;-62
2022/09/23 07:32:14;;;;;;;21.65;18.48;;;12.50;99.90;;;;;;5005121;28;20085;-64
2022/09/23 07:34:39;;;;;;;21.88;19.45;;;12.60;99.90;;;;;;4998267;28;20078;-64
2022/09/23 07:37:05;;;;;;;23.30;18.90;;;12.60;99.90;;;;;;5018029;28;20048;-63
2022/09/23 07:39:31;;;;;;;20.45;17.00;;;12.60;99.90;;;;;;5018207;28;20054;-64
2022/09/23 07:41:56;;;;;;;24.02;18.60;;;12.60;99.90;;;;;;5018430;28;20038;-63
2022/09/23 07:44:23;;;;;;;22.27;18.38;;;12.70;99.90;;;;;;5001128;28;20056;-62
2022/09/23 07:46:48;;;;;;;22.73;19.45;;;12.70;99.90;;;;;;4989068;28;20397;-64
2022/09/23 07:49:14;;;;;;;22.33;18.77;;;12.70;99.90;;;;;;4998588;28;20119;-63
2022/09/23 07:51:44;;;;;;;23.15;18.23;;;12.70;99.90;;;;;;4981698;28;20386;-62
2022/09/23 07:54:13;;;;;;;28.88;19.25;;;12.80;99.90;;;;;;4998591;28;20364;-63
2022/09/23 07:56:40;;;;;;;22.73;18.55;;;12.80;99.90;;;;;;4998693;28;20057;-64
2022/09/23 07:59:09;;;;;;;23.48;18.00;;;12.90;99.90;;;;;;4998341;28;20054;-64
2022/09/23 08:01:37;;;;;;;23.15;17.50;;;13.00;99.90;;;;;;5009420;28;20532;-63
2022/09/23 08:04:06;;;;;;;21.02;17.25;;;13.10;99.90;;;;;;5017860;28;20088;-64
2022/09/23 08:06:33;;;;;;;22.60;17.50;;;13.20;99.90;;;;;;5016946;28;20125;-64
2022/09/23 08:08:59;;;;;;;24.35;18.23;;;13.30;99.90;;;;;;5017530;28;20383;-62
2022/09/23 08:11:26;;;;;;;20.65;17.70;;;13.30;99.90;;;;;;5018010;28;20045;-63
2022/09/23 08:13:52;;;;;;;22.67;16.75;;;13.30;99.90;;;;;;5017715;28;20346;-63
2022/09/23 08:16:19;;;;;;;21.58;17.67;;;13.40;99.90;;;;;;4988772;28;20058;-62
2022/09/23 08:18:45;;;;;;;22.70;17.52;;;13.40;99.90;;;;;;4998212;28;20050;-63
2022/09/23 08:21:11;;;;;;;21.02;17.65;;;13.30;99.90;;;;;;4998050;28;20089;-63
2022/09/23 08:23:37;;;;;;;20.52;18.30;;;13.40;99.90;;;;;;4997778;28;20416;-64
2022/09/23 08:26:05;;;;;;;26.67;17.33;;;13.40;99.90;;;;;;4997721;28;20128;-64
2022/09/23 08:28:32;;;;;;;19.95;17.08;;;13.40;99.90;;;;;;4997718;28;20441;-64
2022/09/23 08:30:58;;;;;;;23.83;17.65;;;13.40;99.90;;;;;;5008487;28;20133;-62
2022/09/23 08:33:24;;;;;;;21.63;17.55;;;13.40;99.90;;;;;;5017392;28;20064;-63
2022/09/23 08:35:51;;;;;;;22.20;18.15;;;13.40;99.90;;;;;;5000108;28;20058;-62
2022/09/23 08:38:17;;;;;;;23.98;17.73;;;13.50;99.90;;;;;;4999810;28;20387;-64
2022/09/23 08:40:47;;;;;;;21.23;18.05;;;13.50;99.90;;;;;;5017342;28;20046;-63
2022/09/23 08:43:20;;;;;;;21.27;18.50;;;13.50;99.90;;;;;;5017197;28;20056;-63
2022/09/23 08:45:46;;;;;;;19.80;17.65;;;13.50;99.90;;;;;;5005638;28;20042;-64
2022/09/23 08:48:14;;;;;;;22.55;18.73;;;13.50;99.90;;;;;;4997591;28;20042;-63
2022/09/23 08:50:51;;;;;;;22.92;20.45;;;13.60;99.90;;;;;;4997360;28;20107;-62
2022/09/23 08:53:22;;;;;;;20.73;18.35;;;13.60;99.90;;;;;;4997440;28;20046;-64
2022/09/23 08:55:50;;;;;;;20.75;18.67;;;13.70;99.90;;;;;;4997213;28;20046;-62
2022/09/23 08:58:54;;;;;;;24.98;19.30;;;13.70;99.90;;;;;;4997341;28;20046;-62
2022/09/23 09:01:37;;;;;;;20.40;18.30;;;13.70;99.90;;;;;;5014633;28;20053;-63
2022/09/23 09:04:39;;;;;;;22.50;19.50;;;13.60;99.90;;;;;;4999676;28;20077;-63
2022/09/23 09:07:08;;;;;;;20.25;18.08;;;13.70;99.90;;;;;;4999268;28;20058;-62
2022/09/23 09:09:44;;;;;;;21.98;18.98;;;13.60;99.90;;;;;;5016649;28;20333;-62
2022/09/23 09:12:42;;;;;;;22.73;20.15;;;13.70;99.90;;;;;;5016456;28;20499;-64
2022/09/23 09:15:22;;;;;;;21.55;19.25;;;13.80;99.90;;;;;;5005956;28;20082;-63
2022/09/23 09:18:00;;;;;;;20.65;18.40;;;13.80;99.90;;;;;;4996788;28;20050;-64
2022/09/23 09:20:38;;;;;;;20.27;18.08;;;13.90;99.90;;;;;;4979521;28;20086;-64
2022/09/23 09:23:14;;;;;;;21.02;18.65;;;13.90;99.90;;;;;;4979437;28;20138;-63
2022/09/23 09:25:55;;;;;;;22.45;20.08;;;14.00;99.90;;;;;;4996505;28;20085;-63
2022/09/23 09:28:47;;;;;;;24.40;18.73;;;14.00;99.90;;;;;;4979805;28;20061;-64
2022/09/23 09:31:43;;;;;;;21.00;17.63;;;14.10;99.90;;;;;;4996993;28;20065;-63
2022/09/23 09:34:19;;;;;;;21.58;17.92;;;14.20;99.90;;;;;;4980133;28;20129;-63
2022/09/23 09:36:52;;;;;;;21.73;17.95;;;14.30;99.90;;;;;;4996439;28;20046;-63
2022/09/23 09:39:18;;;;;;;23.25;19.55;;;14.30;99.90;;;;;;4996277;28;20129;-64
2022/09/23 09:41:50;;;;;;;25.10;22.30;;;14.30;99.90;;;;;;4996512;28;20085;-64
2022/09/23 09:44:42;;;;;;;20.75;18.58;;;14.40;99.90;;;;;;5003430;28;20530;-63
2022/09/23 09:47:39;;;;;;;24.23;19.35;;;14.50;99.90;;;;;;4990843;28;20058;-62
2022/09/23 09:50:10;;;;;;;21.90;17.42;;;14.50;99.90;;;;;;5015991;28;20052;-63
2022/09/23 09:52:36;;;;;;;23.70;19.35;;;14.50;99.90;;;;;;4998797;28;20128;-62
2022/09/23 09:55:11;;;;;;;21.67;19.38;;;14.50;99.90;;;;;;5015822;28;20126;-64
2022/09/23 09:57:40;;;;;;;;;;;14.60;99.90;;;;;;5016255;28;20115;-63
2022/09/23 10:00:39;;;;;;;22.02;19.13;;;14.60;99.90;;;;;;4999388;28;19922;-62
2022/09/23 10:03:14;;;;;;;21.73;19.42;;;14.60;99.90;;;;;;4995626;28;20120;-64
2022/09/23 10:05:47;;;;;;;21.83;19.30;;;14.60;99.90;;;;;;4995695;28;20479;-64
2022/09/23 10:08:32;;;;;;;23.05;18.88;;;14.60;99.90;;;;;;4979147;28;20065;-64
2022/09/23 10:10:57;;;;;;;22.45;18.85;;;14.70;99.90;;;;;;4996011;28;20052;-64
2022/09/23 10:13:25;;;;;;;22.13;18.40;;;14.70;99.90;;;;;;5002375;28;20364;-63
2022/09/23 10:15:53;;;;;;;22.13;18.73;;;14.70;99.90;;;;;;5015303;28;20053;-64
2022/09/23 10:18:31;;;;;;;22.77;18.42;;;14.80;99.90;;;;;;4997797;28;20516;-63
2022/09/23 10:21:19;;;;;;;23.25;19.00;;;14.90;99.90;;;;;;4997836;28;20050;-62
2022/09/23 10:23:51;;;;;;;22.50;18.63;;;14.90;99.90;;;;;;5015495;28;20045;-63
2022/09/23 10:26:25;;;;;;;20.23;18.20;;;14.90;99.90;;;;;;4997878;28;20057;-63
2022/09/23 10:28:54;;;;;;;25.48;20.15;;;14.90;99.90;;;;;;5002778;28;20389;-64
2022/09/23 10:31:23;;;;;;;22.90;19.95;;;15.00;99.90;;;;;;5011545;28;20050;-62
2022/09/23 10:33:53;;;;;;;23.42;19.55;;;14.90;99.90;;;;;;5015312;28;20050;-63
2022/09/23 10:36:20;;;;;;;27.13;19.58;;;14.90;99.90;;;;;;5015164;28;20064;-64
2022/09/23 10:38:50;;;;;;;23.67;19.23;;;14.90;99.90;;;;;;4997543;28;20409;-63
2022/09/23 10:48:10;;;;;;;22.90;19.05;;;14.90;99.90;;;;;;5015120;28;19929;-63
2022/09/23 10:50:49;;;;;;;22.33;19.90;;;14.90;99.90;;;;;;5014643;28;20061;-64
2022/09/23 10:53:30;;;;;;;25.15;19.55;;;15.00;99.90;;;;;;4997818;28;20372;-62
2022/09/23 10:56:26;;;;;;;22.08;19.73;;;15.00;99.90;;;;;;5014932;28;20046;-64
2022/09/23 10:59:13;;;;;;;22.38;19.75;;;15.00;99.90;;;;;;4998548;28;20050;-63
2022/09/23 11:02:03;;;;;;;21.80;19.45;;;15.10;99.90;;;;;;4978130;28;20054;-64
2022/09/23 11:04:47;;;;;;;22.73;20.40;;;15.20;99.90;;;;;;4995363;28;20100;-64
2022/09/23 11:07:28;;;;;;;24.33;21.67;;;15.20;99.90;;;;;;4995389;28;20086;-64
2022/09/23 11:10:16;;;;;;;25.52;20.35;;;15.30;99.90;;;;;;4995326;28;20404;-64
2022/09/23 11:12:56;;;;;;;24.35;21.73;;;15.30;99.90;;;;;;4995576;28;20116;-64
2022/09/23 11:15:32;;;;;;;25.63;20.92;;;15.30;99.90;;;;;;4995074;28;20445;-64
2022/09/23 11:18:10;;;;;;;23.52;20.98;;;15.40;99.90;;;;;;4995241;28;20472;-64
2022/09/23 11:20:50;;;;;;;29.23;22.45;;;15.30;99.90;;;;;;4995144;28;20042;-63
2022/09/23 11:24:00;;;;;;;26.60;23.00;;;15.30;99.90;;;;;;4995272;28;20408;-64
2022/09/23 11:26:59;;;;;;;26.90;22.70;;;15.40;99.90;;;;;;4900137;29;20151;-65
2022/09/23 11:29:35;;;;;;;26.45;23.42;;;15.40;99.90;;;;;;4989844;28;20053;-64
2022/09/23 11:32:00;;;;;;;26.45;22.75;;;15.50;99.90;;;;;;4978228;28;20046;-63
2022/09/23 11:34:47;;;;;;;29.40;24.70;;;15.40;99.90;;;;;;4995113;28;20065;-65
2022/09/23 11:37:27;;;;;;;27.17;24.17;;;15.40;99.90;;;;;;4994865;28;20046;-64
2022/09/23 11:40:05;;;;;;;29.52;24.13;;;15.40;99.90;;;;;;4978002;28;20453;-65
2022/09/23 11:42:51;;;;;;;30.55;25.10;;;15.40;99.90;;;;;;4991636;28;20462;-64
2022/09/23 11:45:22;;;;;;;30.67;25.77;;;15.30;99.90;;;;;;5018448;28;20371;-64
2022/09/23 11:48:10;;;;;;;33.63;26.48;;;15.30;99.90;;;;;;5001124;28;20050;-66
2022/09/23 11:50:45;;;;;;;30.13;26.88;;;15.30;99.90;;;;;;5000532;28;20053;-65
2022/09/23 11:53:41;;;;;;;30.27;26.95;;;15.30;99.90;;;;;;5018135;28;20060;-65
2022/09/23 11:56:22;;;;;;;32.15;27.42;;;15.40;99.90;;;;;;5015703;28;20060;-65
2022/09/23 11:58:59;;;;;;;31.35;27.95;;;15.20;99.90;;;;;;5017962;28;20049;-63
2022/09/23 12:01:34;;;;;;;34.33;27.52;;;15.20;99.90;;;;;;5017980;28;20050;-63
2022/09/23 12:04:14;;;;;;;34.30;29.73;;;15.20;99.90;;;;;;5018083;28;20050;-64
2022/09/23 12:06:44;;;;;;;37.53;30.25;;;15.20;99.90;;;;;;5017995;28;20085;-64
2022/09/23 12:09:33;;;;;;;33.95;29.55;;;15.20;99.90;;;;;;5017410;28;20089;-64
2022/09/23 12:12:11;;;;;;;35.20;30.48;;;15.20;99.90;;;;;;5016570;28;20085;-65
2022/09/23 12:15:03;;;;;;;38.00;31.45;;;15.20;99.90;;;;;;5017713;28;20077;-64
2022/09/23 12:18:04;;;;;;;35.63;31.77;;;15.20;99.90;;;;;;5000102;28;20053;-64
2022/09/23 12:20:29;;;;;;;42.10;32.20;;;15.30;99.90;;;;;;5000252;28;20108;-64
2022/09/23 12:23:40;;;;;;;35.92;32.13;;;15.30;99.90;;;;;;5017078;28;20085;-65
2022/09/23 12:26:16;;;;;;;40.75;32.78;;;15.40;99.90;;;;;;4987176;28;20050;-64
2022/09/23 12:28:46;;;;;;;41.88;32.90;;;15.30;99.90;;;;;;4998025;28;20042;-65
2022/09/23 12:31:14;;;;;;;38.17;31.13;;;15.20;99.90;;;;;;5016022;28;20479;-65
2022/09/23 12:33:51;;;;;;;36.70;32.35;;;15.40;99.90;;;;;;5017579;28;20100;-64
2022/09/23 12:36:25;;;;;;;36.75;32.63;;;15.40;99.90;;;;;;5017333;28;20116;-66
2022/09/23 12:39:16;;;;;;;37.25;32.67;;;15.30;99.90;;;;;;4999927;28;20116;-63
2022/09/23 12:41:45;;;;;;;37.08;32.15;;;15.40;99.90;;;;;;4972204;28;20058;-66
2022/09/23 12:44:13;;;;;;;38.35;34.20;;;15.30;99.90;;;;;;4997504;28;20132;-65
2022/09/23 12:46:43;;;;;;;38.45;33.63;;;15.30;99.90;;;;;;4980300;28;20117;-66
2022/09/23 12:49:29;;;;;;;44.45;37.25;;;15.30;99.90;;;;;;4997556;28;20042;-66
2022/09/23 12:52:13;;;;;;;44.33;37.20;;;15.40;99.90;;;;;;4983904;28;20057;-66
2022/09/23 12:54:40;;;;;;;44.92;36.88;;;15.30;99.90;;;;;;4997592;28;20421;-64
2022/09/23 12:57:32;;;;;;;42.33;36.80;;;15.10;99.90;;;;;;4997183;28;20053;-66
2022/09/23 13:00:12;;;;;;;43.15;37.45;;;15.10;99.90;;;;;;4983842;28;20065;-65
2022/09/23 13:02:40;;;;;;;49.17;39.80;;;15.00;99.90;;;;;;4997105;28;20090;-66